Time;durP1;ratioP1;P1;durP2;ratioP2;P2;SDS_P1;SDS_P2;PMS_P1;PMS_P2;Temp;Humidity;BMP_temperature;BMP_pressure;BME280_temperature;BME280_humidity;BME280_pressure;Samples;Min_cycle;Max_cycle;Signal;HPM_P1;HPM_P2
2023/10/10 00:00:27;;;;;;;3.55;2.90;;;18.80;75.40;;;;;;5112364;28;20204;-65
2023/10/10 00:02:53;;;;;;;4.32;3.05;;;18.80;75.20;;;;;;5112667;28;20703;-64
2023/10/10 00:05:19;;;;;;;3.33;3.00;;;18.80;75.30;;;;;;5111521;28;20189;-64
2023/10/10 00:07:46;;;;;;;3.15;2.75;;;18.70;75.20;;;;;;5112634;28;20165;-64
2023/10/10 00:10:13;;;;;;;3.80;2.72;;;18.70;75.20;;;;;;5112565;28;20180;-64
2023/10/10 00:12:39;;;;;;;3.03;2.70;;;18.70;75.20;;;;;;5111696;28;20205;-64
2023/10/10 00:15:06;;;;;;;4.15;2.97;;;18.80;75.20;;;;;;5112404;28;20173;-64
2023/10/10 00:17:36;;;;;;;5.05;3.13;;;18.70;75.20;;;;;;5112348;28;20243;-63
2023/10/10 00:22:48;;;;;;;2.72;2.40;;;18.80;75.20;;;;;;5112520;28;20650;-64
2023/10/10 00:25:24;;;;;;;3.28;2.97;;;18.80;75.30;;;;;;5112295;28;20180;-64
2023/10/10 00:27:59;;;;;;;3.45;2.60;;;18.70;75.20;;;;;;5112220;28;20169;-63
2023/10/10 00:30:33;;;;;;;2.97;2.67;;;18.70;75.20;;;;;;5112224;28;20580;-64
2023/10/10 00:33:04;;;;;;;2.85;2.60;;;18.80;75.30;;;;;;5111473;28;20622;-65
2023/10/10 00:35:31;;;;;;;4.60;3.28;;;18.70;75.20;;;;;;5112323;28;20173;-64
2023/10/10 00:37:57;;;;;;;3.10;2.78;;;18.70;75.20;;;;;;5112296;28;20708;-64
2023/10/10 00:40:30;;;;;;;3.55;2.88;;;18.70;75.20;;;;;;5114980;28;20317;-64
2023/10/10 00:42:59;;;;;;;4.03;2.97;;;18.70;75.20;;;;;;5116343;28;20204;-64
2023/10/10 00:45:28;;;;;;;2.85;2.65;;;18.70;75.20;;;;;;5115841;28;20173;-64
2023/10/10 00:47:54;;;;;;;3.63;2.95;;;18.70;75.20;;;;;;5115204;28;20221;-65
2023/10/10 00:50:25;;;;;;;3.55;3.00;;;18.70;75.20;;;;;;5115502;28;20590;-64
2023/10/10 00:52:53;;;;;;;3.25;2.53;;;18.70;75.20;;;;;;5115949;28;20177;-64
2023/10/10 00:55:22;;;;;;;5.95;3.00;;;18.70;75.20;;;;;;5114713;28;20181;-64
2023/10/10 00:57:58;;;;;;;3.50;3.20;;;18.70;75.20;;;;;;5081564;28;20564;-64
2023/10/10 01:00:29;;;;;;;3.13;2.83;;;18.80;75.40;;;;;;5097683;28;20212;-64
2023/10/10 01:03:07;;;;;;;3.03;2.80;;;18.70;75.20;;;;;;5115180;28;20266;-64
2023/10/10 01:05:42;;;;;;;3.97;3.20;;;18.70;75.20;;;;;;5115597;28;20177;-63
2023/10/10 01:08:08;;;;;;;2.67;2.47;;;18.70;75.20;;;;;;5114668;28;20180;-63
2023/10/10 01:10:43;;;;;;;3.53;3.22;;;18.70;75.20;;;;;;5115540;28;20176;-64
2023/10/10 01:13:13;;;;;;;4.28;3.00;;;18.70;75.20;;;;;;5115341;28;20561;-64
2023/10/10 01:15:43;;;;;;;3.60;3.30;;;18.70;75.20;;;;;;5114661;28;20257;-64
2023/10/10 01:18:13;;;;;;;2.97;2.70;;;18.70;75.20;;;;;;5114643;28;20307;-63
2023/10/10 01:20:49;;;;;;;2.97;2.70;;;18.70;75.20;;;;;;5115312;28;20211;-63
2023/10/10 01:23:15;;;;;;;3.08;2.80;;;18.60;75.20;;;;;;5114444;28;20169;-63
2023/10/10 01:25:43;;;;;;;3.17;2.88;;;18.70;75.20;;;;;;5115184;28;20184;-63
2023/10/10 01:28:33;;;;;;;2.90;2.70;;;18.70;75.30;;;;;;5114752;28;20169;-64
2023/10/10 01:30:59;;;;;;;2.97;2.75;;;18.70;75.20;;;;;;5114444;28;20169;-64
2023/10/10 01:35:58;;;;;;;3.58;2.88;;;18.70;75.20;;;;;;5114490;28;20173;-64
2023/10/10 01:38:27;;;;;;;2.80;2.60;;;18.70;75.20;;;;;;5114738;28;20265;-64
2023/10/10 01:40:54;;;;;;;4.07;3.20;;;18.70;75.20;;;;;;5114737;28;20675;-63
2023/10/10 01:43:20;;;;;;;3.03;2.72;;;18.60;75.20;;;;;;5114076;28;20260;-64
2023/10/10 01:45:52;;;;;;;3.00;2.80;;;18.70;75.20;;;;;;5114610;28;20586;-64
2023/10/10 01:48:23;;;;;;;3.42;2.95;;;18.70;75.20;;;;;;5114409;28;20229;-64
2023/10/10 01:50:48;;;;;;;3.20;2.90;;;18.70;76.10;;;;;;5113161;28;20169;-64
2023/10/10 01:53:15;;;;;;;3.30;2.90;;;18.70;75.20;;;;;;5114355;28;20177;-64
2023/10/10 01:55:41;;;;;;;3.50;2.90;;;18.70;75.20;;;;;;5114443;28;20888;-64
2023/10/10 01:58:11;;;;;;;3.42;2.80;;;18.70;75.20;;;;;;5113548;28;20174;-64
2023/10/10 02:00:37;;;;;;;3.55;2.88;;;18.70;75.20;;;;;;5114344;28;20670;-64
2023/10/10 02:03:03;;;;;;;3.47;3.17;;;18.70;75.20;;;;;;5114372;28;20272;-64
2023/10/10 02:08:00;;;;;;;2.95;2.75;;;18.70;76.10;;;;;;5113957;28;20252;-63
2023/10/10 02:10:29;;;;;;;4.93;3.15;;;18.70;75.20;;;;;;5114076;28;20692;-63
2023/10/10 02:12:58;;;;;;;2.72;2.53;;;18.70;75.20;;;;;;5113558;28;20594;-64
2023/10/10 02:15:26;;;;;;;3.25;2.95;;;18.70;75.20;;;;;;5113924;28;20557;-63
2023/10/10 02:17:54;;;;;;;3.17;2.97;;;18.70;75.20;;;;;;5114193;28;20177;-63
2023/10/10 02:22:53;;;;;;;3.10;2.78;;;18.60;75.10;;;;;;5114215;28;20193;-63
2023/10/10 02:28:02;;;;;;;3.15;2.85;;;18.60;75.20;;;;;;5114272;28;20168;-63
2023/10/10 02:30:38;;;;;;;3.42;2.45;;;18.70;75.20;;;;;;5113613;28;20548;-63
2023/10/10 02:36:07;;;;;;;3.03;2.67;;;18.60;75.10;;;;;;5113987;28;20266;-64
2023/10/10 02:38:39;;;;;;;3.28;2.97;;;18.70;75.20;;;;;;5113582;28;20634;-63
2023/10/10 02:43:54;;;;;;;3.03;2.72;;;18.60;75.20;;;;;;5113895;28;20169;-64
2023/10/10 02:46:38;;;;;;;3.38;3.08;;;18.60;75.20;;;;;;5112622;28;20212;-65
2023/10/10 02:49:21;;;;;;;3.38;3.08;;;18.60;75.10;;;;;;5113430;28;20295;-66
2023/10/10 02:51:48;;;;;;;3.17;2.88;;;18.60;75.20;;;;;;5113482;28;20700;-66
2023/10/10 02:59:58;;;;;;;3.30;2.92;;;18.60;76.00;;;;;;5113553;28;20275;-65
2023/10/10 03:02:28;;;;;;;4.47;3.10;;;18.60;75.10;;;;;;5112499;28;20177;-65
2023/10/10 03:07:29;;;;;;;3.67;2.80;;;18.60;75.10;;;;;;5112551;28;20185;-65
2023/10/10 03:12:43;;;;;;;4.10;2.97;;;18.60;75.10;;;;;;5113206;28;20180;-65
2023/10/10 03:15:14;;;;;;;3.30;3.00;;;18.60;75.20;;;;;;5112281;28;20173;-65
2023/10/10 03:17:45;;;;;;;3.13;2.83;;;18.60;75.10;;;;;;5113176;28;20185;-64
2023/10/10 03:20:13;;;;;;;3.50;3.20;;;18.60;75.20;;;;;;5112711;28;20675;-64
2023/10/10 03:25:24;;;;;;;3.67;3.03;;;18.60;75.10;;;;;;5113080;28;21032;-64
2023/10/10 03:28:05;;;;;;;6.18;3.53;;;18.60;75.10;;;;;;5113222;28;20275;-65
2023/10/10 03:33:29;;;;;;;3.28;2.97;;;18.60;75.10;;;;;;5112789;28;20242;-65
2023/10/10 03:39:15;;;;;;;3.72;3.35;;;18.60;75.20;;;;;;5113124;28;20173;-65
2023/10/10 05:25:32;;;;;;;4.15;3.42;;;18.60;75.30;;;;;;5113860;28;20172;-63
2023/10/10 05:28:00;;;;;;;4.40;4.00;;;18.60;75.20;;;;;;5114216;28;20172;-63
2023/10/10 05:30:27;;;;;;;3.65;3.35;;;18.60;75.20;;;;;;5115044;28;20211;-63
2023/10/10 05:33:01;;;;;;;3.88;3.58;;;18.60;75.30;;;;;;5114906;28;20704;-64
2023/10/10 05:35:36;;;;;;;4.15;3.75;;;18.60;75.30;;;;;;5114299;28;20172;-63
2023/10/10 05:38:04;;;;;;;4.13;3.38;;;18.60;75.30;;;;;;5114636;28;20179;-64
2023/10/10 05:40:33;;;;;;;3.70;3.40;;;18.60;75.30;;;;;;5115112;28;20586;-63
2023/10/10 05:42:59;;;;;;;3.42;3.10;;;18.50;75.20;;;;;;5114171;28;20242;-64
2023/10/10 05:45:24;;;;;;;4.47;4.07;;;18.60;75.30;;;;;;5114576;28;20632;-64
2023/10/10 05:47:50;;;;;;;4.88;3.95;;;18.60;75.20;;;;;;5114653;28;20555;-64
2023/10/10 05:50:18;;;;;;;3.83;3.53;;;18.60;75.20;;;;;;5113801;28;20200;-64
2023/10/10 05:52:44;;;;;;;3.90;3.50;;;18.50;75.20;;;;;;5114577;28;20173;-64
2023/10/10 05:55:12;;;;;;;4.00;3.60;;;18.60;75.30;;;;;;5114149;28;20183;-64
2023/10/10 05:57:39;;;;;;;3.55;3.33;;;18.60;75.30;;;;;;5113773;28;20165;-64
2023/10/10 06:00:12;;;;;;;3.70;3.40;;;18.60;75.30;;;;;;5114455;28;20235;-65
2023/10/10 06:02:38;;;;;;;4.97;3.42;;;18.60;75.30;;;;;;5114534;28;20173;-64
2023/10/10 06:05:05;;;;;;;5.35;4.03;;;18.60;75.30;;;;;;5113389;28;20203;-64
2023/10/10 06:07:31;;;;;;;3.88;3.55;;;18.50;75.20;;;;;;5114124;28;20173;-64
2023/10/10 06:09:58;;;;;;;4.63;3.88;;;18.60;75.30;;;;;;5114303;28;20176;-64
2023/10/10 06:12:24;;;;;;;4.68;4.28;;;18.60;75.30;;;;;;5113507;28;20169;-64
2023/10/10 06:14:50;;;;;;;4.30;3.90;;;18.50;75.30;;;;;;5114358;28;20669;-65
2023/10/10 06:17:16;;;;;;;3.72;3.42;;;18.60;75.30;;;;;;5112986;28;20180;-64
2023/10/10 06:19:45;;;;;;;4.18;3.78;;;18.60;75.30;;;;;;5113775;28;20173;-64
2023/10/10 06:22:14;;;;;;;4.40;4.00;;;18.60;75.30;;;;;;5113572;28;20234;-64
2023/10/10 06:24:40;;;;;;;4.43;4.03;;;18.60;75.30;;;;;;5113301;28;20169;-64
2023/10/10 06:27:09;;;;;;;5.03;4.13;;;18.60;75.30;;;;;;5113667;28;20226;-64
2023/10/10 06:29:35;;;;;;;4.00;3.65;;;18.60;75.30;;;;;;5113742;28;20533;-64
2023/10/10 06:32:00;;;;;;;4.13;3.38;;;18.60;75.30;;;;;;5113069;28;20236;-64
2023/10/10 06:34:34;;;;;;;4.80;3.85;;;18.60;75.30;;;;;;5113306;28;20638;-64
2023/10/10 06:37:07;;;;;;;4.07;3.65;;;18.60;75.30;;;;;;5113555;28;20188;-65
2023/10/10 06:39:34;;;;;;;5.85;4.60;;;18.60;75.30;;;;;;5112868;28;20181;-64
2023/10/10 06:41:59;;;;;;;7.22;5.60;;;18.60;75.20;;;;;;5113363;28;20221;-65
2023/10/10 06:44:35;;;;;;;5.70;5.10;;;18.60;75.40;;;;;;5113532;28;20210;-64
2023/10/10 06:47:08;;;;;;;5.55;4.97;;;18.60;75.40;;;;;;5112531;28;20221;-65
2023/10/10 06:49:43;;;;;;;5.78;4.55;;;18.60;75.40;;;;;;5113627;28;20222;-66
2023/10/10 06:52:18;;;;;;;7.82;4.40;;;18.60;75.50;;;;;;5113136;28;20646;-65
2023/10/10 06:54:45;;;;;;;4.70;4.22;;;18.60;75.40;;;;;;5113468;28;20173;-66
2023/10/10 06:57:18;;;;;;;6.10;5.13;;;18.60;75.40;;;;;;5113206;28;20206;-66
2023/10/10 06:59:44;;;;;;;5.55;4.82;;;18.60;75.30;;;;;;5112402;28;20179;-66
2023/10/10 07:02:20;;;;;;;5.90;4.88;;;18.60;75.40;;;;;;5113269;28;20267;-66
2023/10/10 07:04:52;;;;;;;5.78;5.22;;;18.60;75.40;;;;;;5113417;28;20176;-65
2023/10/10 07:07:19;;;;;;;5.63;4.38;;;18.60;75.40;;;;;;5112364;28;20589;-65
2023/10/10 07:09:45;;;;;;;6.65;5.40;;;18.60;75.40;;;;;;5113024;28;20177;-65
2023/10/10 07:12:11;;;;;;;6.90;6.10;;;18.70;75.50;;;;;;5112782;28;20670;-65
2023/10/10 07:14:46;;;;;;;6.00;5.40;;;18.60;75.50;;;;;;5112255;28;20637;-65
2023/10/10 07:17:15;;;;;;;7.63;5.93;;;18.60;75.50;;;;;;5113039;28;20191;-64
2023/10/10 07:22:25;;;;;;;8.10;7.18;;;18.60;75.50;;;;;;5112225;28;20169;-64
2023/10/10 07:25:06;;;;;;;9.68;7.45;;;18.70;75.60;;;;;;5113160;28;20321;-65
2023/10/10 07:27:35;;;;;;;8.55;7.03;;;18.70;75.60;;;;;;5112314;28;20226;-65
2023/10/10 07:30:17;;;;;;;10.10;7.50;;;18.70;75.60;;;;;;5112819;28;20516;-65
2023/10/10 07:32:51;;;;;;;11.15;8.30;;;18.70;75.60;;;;;;5112969;28;20177;-65
2023/10/10 07:35:21;;;;;;;10.90;7.72;;;18.70;75.50;;;;;;5111918;28;20661;-65
2023/10/10 07:37:47;;;;;;;10.20;8.27;;;18.70;75.60;;;;;;5113072;28;20264;-65
2023/10/10 07:42:39;;;;;;;11.07;8.75;;;18.70;75.50;;;;;;5112163;28;20173;-65
2023/10/10 07:45:14;;;;;;;12.27;9.13;;;18.70;75.50;;;;;;5112696;28;20180;-65
2023/10/10 07:50:36;;;;;;;12.05;9.90;;;18.70;75.50;;;;;;5116326;28;20173;-65
2023/10/10 07:53:12;;;;;;;12.88;10.55;;;18.70;75.40;;;;;;5116891;28;20176;-65
2023/10/10 08:01:10;;;;;;;12.82;9.88;;;18.80;75.40;;;;;;5116643;28;20219;-65
2023/10/10 08:03:36;;;;;;;13.93;11.15;;;18.70;76.10;;;;;;5116068;28;20204;-65
2023/10/10 08:06:02;;;;;;;11.23;9.45;;;18.70;75.20;;;;;;5116479;28;20256;-65
2023/10/10 08:08:28;;;;;;;13.18;9.77;;;18.80;75.20;;;;;;5116504;28;20269;-65
2023/10/10 08:10:54;;;;;;;14.82;11.07;;;18.80;75.20;;;;;;5116213;28;20691;-65
2023/10/10 08:13:22;;;;;;;12.70;10.15;;;18.80;75.20;;;;;;5116207;28;20180;-65
2023/10/10 08:16:01;;;;;;;12.68;10.30;;;18.80;75.10;;;;;;5116650;28;20532;-64
2023/10/10 08:18:40;;;;;;;12.85;10.75;;;18.80;75.00;;;;;;5115733;28;20309;-64
2023/10/10 08:23:32;;;;;;;13.13;10.40;;;18.90;74.90;;;;;;5116354;28;20679;-64
2023/10/10 08:25:57;;;;;;;14.35;11.25;;;18.90;74.90;;;;;;5115680;28;20222;-64
2023/10/10 08:28:23;;;;;;;14.73;11.75;;;18.90;74.90;;;;;;5116197;28;20204;-65
2023/10/10 08:30:52;;;;;;;14.63;11.48;;;18.90;74.90;;;;;;5115641;28;20200;-65
2023/10/10 08:33:18;;;;;;;13.10;10.90;;;19.00;74.80;;;;;;5116003;28;20200;-65
2023/10/10 08:35:44;;;;;;;15.10;11.27;;;19.00;74.70;;;;;;5116052;28;20215;-64
2023/10/10 08:38:19;;;;;;;14.77;11.63;;;19.00;74.70;;;;;;5115097;28;20627;-64
2023/10/10 08:40:47;;;;;;;12.73;11.05;;;19.00;74.60;;;;;;5115861;28;20283;-65
2023/10/10 08:43:13;;;;;;;14.60;10.68;;;19.00;74.50;;;;;;5115654;28;20178;-65
2023/10/10 08:45:49;;;;;;;14.20;10.82;;;19.00;74.50;;;;;;5097151;28;20173;-65
2023/10/10 08:48:16;;;;;;;14.57;11.18;;;19.10;74.60;;;;;;5098494;28;20240;-64
2023/10/10 08:50:44;;;;;;;15.07;12.00;;;19.10;74.50;;;;;;5116013;28;20177;-64
2023/10/10 08:53:10;;;;;;;12.63;10.50;;;19.10;74.50;;;;;;5114876;28;20545;-68
2023/10/10 08:55:38;;;;;;;14.50;11.45;;;19.10;74.40;;;;;;5115931;28;20184;-67
2023/10/10 08:58:07;;;;;;;12.10;10.10;;;19.20;74.40;;;;;;5115392;28;20188;-65
2023/10/10 09:00:33;;;;;;;14.40;11.07;;;19.20;74.40;;;;;;5114320;28;20205;-66
2023/10/10 09:02:59;;;;;;;12.32;10.98;;;19.20;74.20;;;;;;5115358;28;20180;-66
2023/10/10 09:05:24;;;;;;;12.13;10.45;;;19.20;74.10;;;;;;5115567;28;20263;-66
2023/10/10 09:07:53;;;;;;;12.90;10.27;;;19.30;74.10;;;;;;5114993;28;20173;-65
2023/10/10 09:10:28;;;;;;;13.77;10.45;;;19.30;74.90;;;;;;5115127;28;20169;-66
2023/10/10 09:12:58;;;;;;;12.20;9.75;;;19.30;74.10;;;;;;5115196;28;20207;-65
2023/10/10 09:15:24;;;;;;;13.38;10.18;;;19.30;74.10;;;;;;5115136;28;20177;-64
2023/10/10 09:17:55;;;;;;;13.73;11.23;;;19.30;74.10;;;;;;5115300;28;20199;-63
2023/10/10 09:20:28;;;;;;;11.13;9.27;;;19.30;74.10;;;;;;5114110;28;20247;-63
2023/10/10 09:22:56;;;;;;;10.80;9.27;;;19.30;74.20;;;;;;5115643;28;20176;-61
2023/10/10 09:25:26;;;;;;;10.68;9.20;;;19.30;74.20;;;;;;5114844;28;20598;-64
2023/10/10 09:28:05;;;;;;;11.93;9.40;;;19.30;74.10;;;;;;5114645;28;20571;-64
2023/10/10 09:30:45;;;;;;;12.00;9.70;;;19.40;74.00;;;;;;5115210;28;20176;-63
2023/10/10 09:33:22;;;;;;;11.50;8.88;;;19.40;74.30;;;;;;5114613;28;20172;-65
2023/10/10 09:35:53;;;;;;;11.10;8.57;;;19.40;74.10;;;;;;5114266;28;20572;-65
2023/10/10 09:38:20;;;;;;;10.35;8.82;;;19.40;74.00;;;;;;5114570;28;20694;-65
2023/10/10 09:40:59;;;;;;;12.10;9.57;;;19.50;73.90;;;;;;5096668;28;20232;-65
2023/10/10 09:43:25;;;;;;;10.13;9.00;;;19.50;73.70;;;;;;5097637;28;20541;-65
2023/10/10 09:45:55;;;;;;;11.85;9.65;;;19.40;74.40;;;;;;5096769;28;20175;-65
2023/10/10 09:56:56;;;;;;;10.38;8.52;;;19.60;73.50;;;;;;5086992;28;20575;-67
2023/10/10 09:59:28;;;;;;;11.20;9.05;;;19.60;73.40;;;;;;5096412;28;20169;-64
2023/10/10 10:02:00;;;;;;;11.75;8.57;;;19.60;73.10;;;;;;5114567;28;20216;-64
2023/10/10 10:04:28;;;;;;;11.85;9.10;;;19.60;73.30;;;;;;5113486;28;20883;-65
2023/10/10 10:07:14;;;;;;;12.73;8.63;;;19.60;73.00;;;;;;5096508;28;20190;-65
2023/10/10 10:09:54;;;;;;;15.50;9.15;;;19.70;73.00;;;;;;5071546;28;20238;-65
2023/10/10 10:12:45;;;;;;;10.32;8.02;;;19.70;72.90;;;;;;5113268;28;20541;-65
2023/10/10 10:15:48;;;;;;;11.93;7.75;;;19.70;72.90;;;;;;5097252;28;20535;-65
2023/10/10 10:18:19;;;;;;;10.10;7.95;;;19.70;72.90;;;;;;5098236;28;20541;-64
2023/10/10 10:21:03;;;;;;;11.18;8.20;;;19.70;72.90;;;;;;5096522;28;20207;-64
2023/10/10 10:23:33;;;;;;;9.20;7.32;;;19.70;72.90;;;;;;5113295;28;20275;-64
2023/10/10 10:26:05;;;;;;;9.55;7.85;;;19.80;72.90;;;;;;5113572;28;20177;-64
2023/10/10 10:28:56;;;;;;;11.27;8.35;;;19.70;72.70;;;;;;5113977;28;20183;-65
2023/10/10 10:31:30;;;;;;;10.18;7.85;;;19.80;72.70;;;;;;5096329;28;20173;-65
2023/10/10 10:34:31;;;;;;;9.77;7.22;;;19.90;72.70;;;;;;5113726;28;20530;-65
2023/10/10 10:37:06;;;;;;;9.40;7.28;;;19.90;72.70;;;;;;5114233;28;20242;-65
2023/10/10 10:39:35;;;;;;;10.18;8.10;;;19.90;72.60;;;;;;5113016;28;20172;-65
2023/10/10 10:42:02;;;;;;;9.60;7.45;;;19.90;72.50;;;;;;5095871;28;20209;-65
2023/10/10 10:44:44;;;;;;;8.50;7.35;;;19.90;72.50;;;;;;5112555;28;20180;-66
2023/10/10 10:47:35;;;;;;;9.07;7.07;;;20.00;72.60;;;;;;5113308;28;20577;-65
2023/10/10 10:50:19;;;;;;;8.48;6.72;;;20.00;72.60;;;;;;5113519;28;20188;-65
2023/10/10 10:52:55;;;;;;;8.20;6.70;;;20.00;72.50;;;;;;5112686;28;20184;-65
2023/10/10 10:55:29;;;;;;;8.27;7.05;;;20.00;72.50;;;;;;5113124;28;20184;-65
2023/10/10 10:58:09;;;;;;;6.80;6.10;;;20.00;72.50;;;;;;5081157;28;20168;-65
2023/10/10 11:01:21;;;;;;;8.45;6.88;;;20.10;72.40;;;;;;5112517;28;20728;-66
2023/10/10 11:03:35;;;;;;;9.00;6.75;;;20.10;72.40;;;;;;5104736;28;20241;-65
2023/10/10 11:06:07;;;;;;;7.50;6.60;;;20.10;72.30;;;;;;5095336;28;20227;-64
2023/10/10 11:11:27;;;;;;;8.40;6.63;;;20.10;72.20;;;;;;5113043;28;20253;-65
2023/10/10 11:13:54;;;;;;;7.88;5.95;;;20.10;72.00;;;;;;5112440;28;20172;-65
2023/10/10 11:16:25;;;;;;;8.63;6.80;;;20.20;72.10;;;;;;5112834;28;20169;-64
2023/10/10 11:18:57;;;;;;;10.18;6.85;;;20.20;72.10;;;;;;5113006;28;20173;-65
2023/10/10 11:21:27;;;;;;;8.10;6.72;;;20.20;72.10;;;;;;5094930;28;20209;-64
2023/10/10 11:23:57;;;;;;;7.95;6.47;;;20.20;72.00;;;;;;5113149;28;20252;-64
2023/10/10 11:26:23;;;;;;;7.28;5.70;;;20.30;72.00;;;;;;5095240;28;20656;-64
2023/10/10 11:28:49;;;;;;;7.38;6.47;;;20.20;71.80;;;;;;5112543;28;20184;-65
2023/10/10 11:31:22;;;;;;;7.95;6.38;;;20.30;71.90;;;;;;5112821;28;20644;-65
2023/10/10 11:33:49;;;;;;;6.85;6.15;;;20.30;71.80;;;;;;5095563;28;20173;-65
2023/10/10 11:36:37;;;;;;;9.75;6.22;;;20.40;71.80;;;;;;5112745;28;20246;-65
2023/10/10 11:39:36;;;;;;;6.40;5.57;;;20.40;71.70;;;;;;5112675;28;20199;-66
2023/10/10 11:41:55;;;;;;;11.30;6.78;;;20.40;71.70;;;;;;5110581;28;20243;-65
2023/10/10 11:44:21;;;;;;;7.03;6.18;;;20.40;71.70;;;;;;5121576;28;20173;-66
2023/10/10 11:46:47;;;;;;;7.55;6.13;;;20.40;71.70;;;;;;5127773;28;20172;-66
2023/10/10 11:49:18;;;;;;;9.48;5.88;;;20.40;71.70;;;;;;5132264;28;20376;-66
2023/10/10 11:51:45;;;;;;;6.63;5.65;;;20.40;71.70;;;;;;5132379;28;20224;-66
2023/10/10 11:54:11;;;;;;;8.30;5.72;;;20.40;71.80;;;;;;5133236;28;20176;-65
2023/10/10 11:56:36;;;;;;;6.82;6.13;;;20.40;71.80;;;;;;5132750;28;20177;-66
2023/10/10 11:59:09;;;;;;;9.07;6.65;;;20.40;71.80;;;;;;5133325;28;20211;-66
2023/10/10 12:01:49;;;;;;;8.25;6.18;;;20.40;71.80;;;;;;5133271;28;20219;-66
2023/10/10 12:07:13;;;;;;;7.13;5.65;;;20.40;71.70;;;;;;5115059;28;20222;-65
2023/10/10 12:09:44;;;;;;;6.18;5.32;;;20.40;71.80;;;;;;5132460;28;20200;-65
2023/10/10 12:12:10;;;;;;;7.97;6.10;;;20.40;71.90;;;;;;5132822;28;20634;-65
2023/10/10 12:14:36;;;;;;;6.78;6.03;;;20.30;71.80;;;;;;5133254;28;20205;-65
2023/10/10 12:17:05;;;;;;;7.65;6.18;;;20.30;72.00;;;;;;5132417;28;20164;-64
2023/10/10 12:19:37;;;;;;;7.07;6.30;;;20.20;72.00;;;;;;5133095;28;20180;-65
2023/10/10 12:22:08;;;;;;;7.25;6.00;;;20.20;72.10;;;;;;5132811;28;20571;-65
2023/10/10 12:24:35;;;;;;;6.70;5.10;;;20.10;72.20;;;;;;5132121;28;20256;-65
2023/10/10 12:27:01;;;;;;;6.25;5.40;;;20.20;72.10;;;;;;5133034;28;20237;-65
2023/10/10 12:29:30;;;;;;;7.15;6.00;;;20.30;72.10;;;;;;5132963;28;20191;-65
2023/10/10 12:31:56;;;;;;;7.05;6.18;;;20.30;72.10;;;;;;5132399;28;20173;-65
2023/10/10 12:34:24;;;;;;;7.97;5.85;;;20.30;71.90;;;;;;5133546;27;20661;-65
2023/10/10 12:36:59;;;;;;;7.40;5.57;;;20.30;71.80;;;;;;5136890;27;20202;-66
2023/10/10 12:39:28;;;;;;;5.72;5.13;;;20.40;71.80;;;;;;5136628;27;20171;-65
2023/10/10 12:41:55;;;;;;;6.85;5.57;;;20.40;71.80;;;;;;5136800;27;20208;-66
2023/10/10 12:44:23;;;;;;;8.73;6.15;;;20.40;71.60;;;;;;5135776;27;20199;-66
2023/10/10 12:46:49;;;;;;;6.35;5.47;;;20.40;71.70;;;;;;5136236;27;20196;-66
2023/10/10 12:49:17;;;;;;;8.77;5.97;;;20.40;71.80;;;;;;5136227;27;20176;-66
2023/10/10 12:51:45;;;;;;;6.85;5.50;;;20.50;71.80;;;;;;5135538;27;20264;-66
2023/10/10 12:54:17;;;;;;;7.20;5.28;;;20.50;71.60;;;;;;5136278;27;20195;-66
2023/10/10 12:56:54;;;;;;;6.75;5.40;;;20.50;71.40;;;;;;5136380;27;20258;-66
2023/10/10 12:59:20;;;;;;;5.95;5.07;;;20.60;71.40;;;;;;5135313;27;20176;-66
2023/10/10 13:01:46;;;;;;;6.63;5.30;;;20.60;71.30;;;;;;5135963;27;20574;-66
2023/10/10 13:04:17;;;;;;;6.53;5.32;;;20.70;71.20;;;;;;5135809;27;20172;-65
2023/10/10 13:06:43;;;;;;;6.47;5.25;;;20.70;71.10;;;;;;5135616;27;20179;-66
2023/10/10 13:09:14;;;;;;;7.65;6.05;;;20.70;70.90;;;;;;5135925;27;20177;-66
2023/10/10 13:11:47;;;;;;;6.90;5.55;;;20.80;70.70;;;;;;5136099;27;20172;-66
2023/10/10 13:14:19;;;;;;;6.53;5.38;;;20.80;70.50;;;;;;5135129;27;20200;-65
2023/10/10 13:19:13;;;;;;;8.48;5.72;;;20.90;70.10;;;;;;5135123;27;20267;-65
2023/10/10 13:21:39;;;;;;;8.00;6.22;;;21.00;70.10;;;;;;5135828;27;20253;-65
2023/10/10 13:24:10;;;;;;;9.02;5.75;;;21.00;70.10;;;;;;5135708;27;20196;-65
2023/10/10 13:26:38;;;;;;;6.80;5.32;;;21.10;69.90;;;;;;5135045;27;20203;-65
2023/10/10 13:29:05;;;;;;;7.55;5.50;;;21.20;69.90;;;;;;5135531;27;20623;-65
2023/10/10 13:31:31;;;;;;;6.65;5.53;;;21.10;69.70;;;;;;5135444;27;20245;-66
2023/10/10 13:33:56;;;;;;;7.07;5.90;;;21.10;69.70;;;;;;5135164;27;20177;-66
2023/10/10 13:36:22;;;;;;;7.20;5.85;;;21.00;69.80;;;;;;5135248;27;20177;-66
2023/10/10 13:38:49;;;;;;;7.68;5.85;;;20.90;70.00;;;;;;5135727;27;20161;-66
2023/10/10 13:41:18;;;;;;;5.93;4.82;;;20.90;70.20;;;;;;5134360;27;20566;-66
2023/10/10 13:43:47;;;;;;;7.45;5.80;;;20.80;70.30;;;;;;5135368;27;20172;-66
2023/10/10 13:46:18;;;;;;;6.40;5.65;;;20.70;70.60;;;;;;5133958;27;20188;-66
2023/10/10 13:48:43;;;;;;;8.10;6.47;;;20.70;70.70;;;;;;5134355;27;20216;-66
2023/10/10 13:51:09;;;;;;;6.47;5.57;;;20.70;70.70;;;;;;5135091;27;20229;-66
2023/10/10 13:53:35;;;;;;;7.88;5.78;;;20.60;70.80;;;;;;5135231;27;20176;-66
2023/10/10 13:56:04;;;;;;;9.23;5.82;;;20.60;70.90;;;;;;5134260;27;20177;-65
2023/10/10 13:58:29;;;;;;;6.05;5.45;;;20.60;71.00;;;;;;5134882;27;20196;-65
2023/10/10 14:00:55;;;;;;;5.72;5.13;;;20.50;71.00;;;;;;5135065;27;20703;-65
2023/10/10 14:03:29;;;;;;;6.45;5.82;;;20.50;71.10;;;;;;5134220;27;20183;-65
2023/10/10 14:06:08;;;;;;;6.80;6.10;;;20.50;71.10;;;;;;5135126;27;20194;-65
2023/10/10 14:08:33;;;;;;;5.57;5.07;;;20.50;71.10;;;;;;5134130;27;20168;-65
2023/10/10 14:10:59;;;;;;;8.20;6.07;;;20.50;71.00;;;;;;5134587;27;20546;-65
2023/10/10 14:13:32;;;;;;;6.45;5.28;;;20.60;70.90;;;;;;5134865;27;20619;-65
2023/10/10 14:15:58;;;;;;;6.07;5.18;;;20.70;70.80;;;;;;5134018;27;20168;-65
2023/10/10 14:18:42;;;;;;;6.15;5.47;;;20.70;70.60;;;;;;5134771;27;20168;-65
2023/10/10 14:21:08;;;;;;;6.72;5.70;;;20.70;70.60;;;;;;5134403;27;20221;-65
2023/10/10 14:23:35;;;;;;;7.35;6.10;;;20.70;70.60;;;;;;5133823;27;20173;-65
2023/10/10 14:26:16;;;;;;;6.82;5.40;;;20.60;70.70;;;;;;5134554;27;20252;-64
2023/10/10 14:28:52;;;;;;;5.80;5.03;;;20.60;70.80;;;;;;5134524;27;20546;-65
2023/10/10 14:31:21;;;;;;;8.48;5.47;;;20.50;70.90;;;;;;5133646;27;20198;-65
2023/10/10 14:33:48;;;;;;;6.68;5.60;;;20.50;71.80;;;;;;5134474;27;20184;-65
2023/10/10 14:36:14;;;;;;;7.45;5.60;;;20.40;71.10;;;;;;5134055;27;20518;-64
2023/10/10 14:38:45;;;;;;;6.22;5.15;;;20.40;71.20;;;;;;5133530;27;20169;-65
2023/10/10 14:41:17;;;;;;;6.38;5.47;;;20.40;71.30;;;;;;5133852;27;20284;-65
2023/10/10 14:43:49;;;;;;;6.22;5.45;;;20.30;71.30;;;;;;5133165;27;20235;-66
2023/10/10 14:46:23;;;;;;;6.63;5.05;;;20.30;71.40;;;;;;5132823;27;20179;-65
2023/10/10 14:49:05;;;;;;;6.85;5.30;;;20.30;71.30;;;;;;5133901;27;20238;-66
2023/10/10 14:51:34;;;;;;;7.15;5.53;;;20.40;71.40;;;;;;5133134;27;20245;-65
2023/10/10 14:54:06;;;;;;;8.20;5.65;;;20.30;71.20;;;;;;5128145;27;20631;-65
2023/10/10 14:56:36;;;;;;;6.15;5.55;;;20.40;71.20;;;;;;5121962;27;20312;-65
2023/10/10 14:59:04;;;;;;;7.25;5.65;;;20.30;71.20;;;;;;5123259;27;20168;-66
2023/10/10 15:01:34;;;;;;;8.02;4.97;;;20.30;71.20;;;;;;5132414;27;20269;-65
2023/10/10 15:04:02;;;;;;;5.30;4.80;;;20.30;71.10;;;;;;5115973;27;20199;-65
2023/10/10 15:06:28;;;;;;;6.15;5.28;;;20.30;71.10;;;;;;5112394;28;20217;-65
2023/10/10 15:08:55;;;;;;;7.85;5.57;;;20.30;71.20;;;;;;5113209;28;20639;-66
2023/10/10 15:11:21;;;;;;;6.82;5.50;;;20.30;71.20;;;;;;5112840;28;20173;-65
2023/10/10 15:13:46;;;;;;;7.55;5.40;;;20.30;72.10;;;;;;5112771;28;20250;-65
2023/10/10 15:16:12;;;;;;;5.97;5.38;;;20.30;71.20;;;;;;5112882;28;20640;-65
2023/10/10 15:18:38;;;;;;;8.90;5.95;;;20.30;71.30;;;;;;5112868;28;20173;-65
2023/10/10 15:21:03;;;;;;;6.43;5.13;;;20.30;71.40;;;;;;5112571;28;20674;-65
2023/10/10 15:23:29;;;;;;;6.28;4.88;;;20.20;71.40;;;;;;5112953;28;20719;-65
2023/10/10 15:25:55;;;;;;;7.10;5.10;;;20.20;71.60;;;;;;5112432;28;20173;-65
2023/10/10 15:28:21;;;;;;;5.75;4.90;;;20.20;72.40;;;;;;5112953;28;20173;-65
2023/10/10 15:30:47;;;;;;;6.50;5.43;;;20.20;71.60;;;;;;5113258;28;20201;-65
2023/10/10 15:33:17;;;;;;;7.40;5.55;;;20.20;71.60;;;;;;5112190;28;20192;-66
2023/10/10 15:35:46;;;;;;;6.75;5.20;;;20.20;71.70;;;;;;5112953;28;20173;-66
2023/10/10 15:38:12;;;;;;;7.32;5.57;;;20.20;71.70;;;;;;5112768;28;20573;-65
2023/10/10 15:40:43;;;;;;;5.15;4.47;;;20.20;71.70;;;;;;5111987;28;20283;-66
2023/10/10 15:43:11;;;;;;;6.45;4.78;;;20.10;71.70;;;;;;5112809;28;20169;-66
2023/10/10 15:45:38;;;;;;;7.13;5.40;;;20.10;71.80;;;;;;5113073;28;20181;-66
2023/10/10 15:48:04;;;;;;;6.45;5.13;;;20.10;71.70;;;;;;5111817;28;20303;-66
2023/10/10 15:50:32;;;;;;;6.60;5.30;;;20.10;71.70;;;;;;5112881;28;20252;-66
2023/10/10 15:52:58;;;;;;;10.68;5.65;;;20.10;71.80;;;;;;5112491;28;20180;-66